Time;durP1;ratioP1;P1;durP2;ratioP2;P2;SDS_P1;SDS_P2;PMS_P1;PMS_P2;Temp;Humidity;BMP_temperature;BMP_pressure;BME280_temperature;BME280_humidity;BME280_pressure;Samples;Min_cycle;Max_cycle;Signal;HPM_P1;HPM_P2
2021/10/31 00:01:58;;;;;;;22.33;16.05;;;11.60;99.90;;;;;;5023402;28;20138;-52
2021/10/31 00:04:23;;;;;;;21.15;14.75;;;11.60;99.90;;;;;;5030811;28;20497;-50
2021/10/31 00:06:49;;;;;;;25.67;15.57;;;11.50;99.90;;;;;;5022724;28;20057;-52
2021/10/31 00:09:15;;;;;;;31.60;15.95;;;11.50;99.90;;;;;;5027170;28;20033;-50
2021/10/31 00:11:41;;;;;;;26.40;15.65;;;11.50;99.90;;;;;;5024333;28;20442;-51
2021/10/31 00:14:07;;;;;;;24.63;16.33;;;11.50;99.90;;;;;;5029422;28;20037;-48
2021/10/31 00:16:32;;;;;;;25.73;16.70;;;11.50;99.90;;;;;;5026914;28;20034;-51
2021/10/31 00:18:58;;;;;;;28.23;16.95;;;11.40;99.90;;;;;;5027674;28;20121;-49
2021/10/31 00:21:25;;;;;;;25.20;16.30;;;11.40;99.90;;;;;;5026358;28;20049;-49
2021/10/31 00:23:52;;;;;;;28.50;16.02;;;11.40;99.90;;;;;;5026795;28;20389;-50
2021/10/31 00:26:17;;;;;;;26.70;16.58;;;11.40;99.90;;;;;;5026569;28;20087;-52
2021/10/31 00:28:43;;;;;;;25.17;16.45;;;11.40;99.90;;;;;;5030379;28;20037;-48
2021/10/31 00:31:10;;;;;;;24.50;16.02;;;11.30;99.90;;;;;;5030302;28;20120;-53
2021/10/31 00:33:35;;;;;;;30.15;17.65;;;11.30;99.90;;;;;;5028854;28;20061;-51
2021/10/31 00:36:01;;;;;;;25.33;17.48;;;11.30;99.90;;;;;;5030713;28;20034;-53
2021/10/31 00:38:26;;;;;;;35.88;17.77;;;11.30;99.90;;;;;;5029480;28;20043;-51
2021/10/31 00:40:52;;;;;;;28.85;17.52;;;11.30;99.90;;;;;;5030699;28;20037;-49
2021/10/31 00:43:18;;;;;;;24.25;18.00;;;11.20;99.90;;;;;;5030662;28;20055;-49
2021/10/31 00:45:44;;;;;;;26.83;18.75;;;11.20;99.90;;;;;;5030580;28;20535;-52
2021/10/31 00:48:10;;;;;;;27.88;18.85;;;11.20;99.90;;;;;;5030321;28;20159;-49
2021/10/31 00:50:37;;;;;;;27.35;19.35;;;11.20;99.90;;;;;;5029264;28;20113;-49
2021/10/31 00:53:03;;;;;;;28.20;18.63;;;11.20;99.90;;;;;;5030254;28;20038;-51
2021/10/31 00:55:29;;;;;;;27.88;19.40;;;11.20;99.90;;;;;;5030554;28;20049;-50
2021/10/31 00:57:59;;;;;;;29.08;19.55;;;11.10;99.90;;;;;;5028126;28;20528;-49
2021/10/31 01:00:25;;;;;;;32.45;19.63;;;11.10;99.90;;;;;;5030905;28;20050;-49
2021/10/31 01:02:51;;;;;;;29.63;19.70;;;11.10;99.90;;;;;;5011939;28;20033;-48
2021/10/31 01:05:20;;;;;;;36.08;21.02;;;11.10;99.90;;;;;;5019877;28;20057;-52
2021/10/31 01:08:22;;;;;;;33.47;21.00;;;11.10;99.90;;;;;;5027956;28;20037;-49
2021/10/31 01:11:07;;;;;;;32.57;21.60;;;11.10;99.90;;;;;;5024176;28;20037;-50
2021/10/31 01:13:50;;;;;;;32.22;20.73;;;11.10;99.90;;;;;;5026516;28;20092;-49
2021/10/31 01:16:38;;;;;;;30.25;20.70;;;11.00;99.90;;;;;;5030341;28;20041;-50
2021/10/31 01:19:09;;;;;;;31.80;22.13;;;11.00;99.90;;;;;;5023228;28;20412;-48
2021/10/31 01:22:00;;;;;;;31.83;20.83;;;11.00;99.90;;;;;;5030390;28;20041;-51
2021/10/31 01:24:59;;;;;;;37.13;22.40;;;11.00;99.90;;;;;;5026129;28;20279;-51
2021/10/31 01:27:36;;;;;;;32.28;21.75;;;11.00;99.90;;;;;;5021125;28;20056;-48
2021/10/31 01:30:09;;;;;;;39.45;22.83;;;11.00;99.90;;;;;;5029513;28;20037;-48
2021/10/31 01:33:00;;;;;;;38.45;23.27;;;10.90;99.90;;;;;;5011799;28;20131;-48
2021/10/31 01:35:51;;;;;;;39.85;23.63;;;10.90;99.90;;;;;;5029222;28;20099;-51
2021/10/31 01:38:38;;;;;;;39.55;24.40;;;10.90;99.90;;;;;;5026860;28;20076;-51
2021/10/31 01:41:12;;;;;;;35.22;23.88;;;10.90;99.90;;;;;;5031943;28;20038;-50
2021/10/31 01:44:07;;;;;;;34.72;22.70;;;10.90;99.90;;;;;;5032182;28;20386;-49
2021/10/31 01:46:50;;;;;;;39.08;23.63;;;10.90;99.90;;;;;;5030668;28;20041;-50
2021/10/31 01:49:46;;;;;;;35.22;23.35;;;10.90;99.90;;;;;;5033440;28;20029;-51
2021/10/31 01:52:17;;;;;;;35.10;23.23;;;10.90;99.90;;;;;;5028016;28;20041;-49
2021/10/31 01:55:02;;;;;;;34.53;24.27;;;10.90;99.90;;;;;;5032481;28;20062;-51
2021/10/31 01:57:29;;;;;;;33.95;23.50;;;10.90;99.90;;;;;;5032403;28;20052;-48
2021/10/31 02:00:05;;;;;;;34.30;23.33;;;10.90;99.90;;;;;;5031608;28;20402;-51
2021/10/31 02:02:35;;;;;;;37.65;23.73;;;10.90;99.90;;;;;;5032723;28;20045;-49
2021/10/31 02:05:01;;;;;;;35.85;22.58;;;10.90;99.90;;;;;;5033591;28;20044;-49
2021/10/31 02:07:28;;;;;;;34.88;21.98;;;10.80;99.90;;;;;;5033440;28;20037;-49
2021/10/31 02:09:59;;;;;;;34.10;22.13;;;10.80;99.90;;;;;;5032694;28;20044;-48
2021/10/31 02:12:26;;;;;;;41.33;24.10;;;10.80;99.90;;;;;;5033003;28;20076;-49
2021/10/31 02:14:54;;;;;;;42.50;24.45;;;10.80;99.90;;;;;;5030567;28;20029;-52
2021/10/31 02:17:20;;;;;;;34.88;22.90;;;10.80;99.90;;;;;;5032888;28;20041;-53
2021/10/31 02:19:47;;;;;;;39.63;23.27;;;10.70;99.90;;;;;;5032939;28;20560;-49
2021/10/31 02:22:26;;;;;;;33.35;22.30;;;10.80;99.90;;;;;;5029072;28;20067;-50
2021/10/31 02:24:52;;;;;;;35.53;22.90;;;10.80;99.90;;;;;;5032965;28;20033;-49
2021/10/31 02:27:20;;;;;;;33.55;21.95;;;10.70;99.90;;;;;;5013570;28;20041;-49
2021/10/31 02:29:50;;;;;;;36.20;22.58;;;10.70;99.90;;;;;;5031195;28;20038;-51
2021/10/31 02:32:17;;;;;;;40.53;22.95;;;10.70;99.90;;;;;;5032349;28;20128;-49
2021/10/31 02:34:43;;;;;;;34.30;21.98;;;10.70;99.90;;;;;;5032760;28;20497;-49
2021/10/31 02:37:09;;;;;;;36.03;22.27;;;10.70;99.90;;;;;;5032695;28;20485;-48
2021/10/31 02:39:35;;;;;;;35.70;23.48;;;10.70;99.90;;;;;;5032773;28;20103;-50
2021/10/31 02:42:01;;;;;;;35.58;22.55;;;10.70;99.90;;;;;;5028856;28;20560;-49
2021/10/31 02:44:27;;;;;;;35.50;22.80;;;10.70;99.90;;;;;;5028602;28;20045;-54
2021/10/31 02:46:53;;;;;;;34.97;22.50;;;10.60;99.90;;;;;;5032004;28;20048;-49
2021/10/31 02:49:20;;;;;;;37.55;23.17;;;10.70;99.90;;;;;;5032663;28;20044;-51
2021/10/31 02:51:56;;;;;;;42.33;24.38;;;10.70;99.90;;;;;;5032320;28;20045;-50
2021/10/31 02:54:36;;;;;;;36.53;21.77;;;10.70;99.90;;;;;;5032075;28;20033;-49
2021/10/31 02:57:17;;;;;;;38.65;23.48;;;10.60;99.90;;;;;;5031546;28;20091;-48
2021/10/31 02:59:54;;;;;;;37.13;23.27;;;10.60;99.90;;;;;;5030002;28;20040;-49
2021/10/31 03:02:20;;;;;;;38.42;23.45;;;10.60;99.90;;;;;;5030740;28;20041;-49
2021/10/31 03:04:47;;;;;;;35.10;23.55;;;10.60;99.90;;;;;;5031487;28;20029;-48
2021/10/31 03:07:15;;;;;;;38.75;24.00;;;10.60;99.90;;;;;;5031484;28;20037;-52
2021/10/31 03:09:45;;;;;;;38.90;23.95;;;10.60;99.90;;;;;;5031312;28;20033;-52
2021/10/31 03:12:11;;;;;;;36.55;24.50;;;10.60;99.90;;;;;;5032344;28;20037;-49
2021/10/31 03:14:36;;;;;;;41.42;24.88;;;10.60;99.90;;;;;;5031745;28;20659;-48
2021/10/31 03:17:03;;;;;;;38.55;26.05;;;10.60;99.90;;;;;;5031902;28;20370;-49
2021/10/31 03:19:29;;;;;;;39.67;24.58;;;10.60;99.90;;;;;;5013828;28;20661;-49
2021/10/31 03:21:54;;;;;;;40.80;25.35;;;10.60;99.90;;;;;;5031789;28;20037;-48
2021/10/31 03:24:21;;;;;;;41.25;24.52;;;10.50;99.90;;;;;;5013351;28;20045;-51
2021/10/31 03:26:47;;;;;;;39.05;24.65;;;10.50;99.90;;;;;;5031608;28;20041;-49
2021/10/31 03:29:13;;;;;;;39.50;24.20;;;10.50;99.90;;;;;;5029744;28;20029;-48
2021/10/31 03:31:38;;;;;;;41.60;25.20;;;10.50;99.90;;;;;;5031767;28;20045;-49
2021/10/31 03:34:04;;;;;;;39.92;25.40;;;10.50;99.90;;;;;;5031591;28;20029;-52
2021/10/31 03:36:29;;;;;;;44.33;24.38;;;10.50;99.90;;;;;;5030667;28;20099;-50
2021/10/31 03:38:55;;;;;;;41.15;26.05;;;10.50;99.90;;;;;;5031231;28;20039;-49
2021/10/31 03:41:21;;;;;;;38.45;24.77;;;10.40;99.90;;;;;;5031910;28;20156;-49
2021/10/31 03:43:46;;;;;;;45.30;25.55;;;10.50;99.90;;;;;;5030997;28;20033;-49
2021/10/31 03:46:12;;;;;;;41.10;24.33;;;10.50;99.90;;;;;;5031412;28;20030;-53
2021/10/31 03:48:37;;;;;;;44.92;25.35;;;10.50;99.90;;;;;;5031022;28;20045;-48
2021/10/31 03:51:03;;;;;;;45.88;25.15;;;10.50;99.90;;;;;;5026350;28;20052;-49
2021/10/31 03:53:28;;;;;;;41.33;23.70;;;10.50;99.90;;;;;;5028387;28;20029;-51
2021/10/31 03:55:54;;;;;;;44.15;24.33;;;10.50;99.90;;;;;;5030026;28;20513;-51
2021/10/31 03:58:19;;;;;;;37.58;22.83;;;10.40;99.90;;;;;;5025499;28;20076;-49
2021/10/31 04:00:45;;;;;;;45.17;24.33;;;10.40;99.90;;;;;;5029910;28;20135;-49
2021/10/31 04:03:11;;;;;;;38.35;23.55;;;10.40;99.90;;;;;;5029946;28;20095;-48
2021/10/31 04:05:37;;;;;;;41.33;22.98;;;10.40;99.90;;;;;;5026939;28;20053;-49
2021/10/31 04:08:03;;;;;;;41.83;24.20;;;10.40;99.90;;;;;;5030966;28;20056;-49
2021/10/31 04:10:29;;;;;;;47.10;24.00;;;10.40;99.90;;;;;;5030795;28;20489;-50
2021/10/31 04:12:55;;;;;;;40.53;23.05;;;10.40;99.90;;;;;;5031340;28;20033;-50
2021/10/31 04:15:20;;;;;;;40.10;23.33;;;10.40;99.90;;;;;;5030839;28;20037;-48
2021/10/31 04:17:46;;;;;;;37.95;22.67;;;10.40;99.90;;;;;;5029917;28;20042;-48
2021/10/31 04:20:12;;;;;;;41.42;23.13;;;10.40;99.90;;;;;;5027860;28;20040;-49
2021/10/31 04:22:38;;;;;;;43.40;23.88;;;10.40;99.90;;;;;;5031234;28;20041;-48
2021/10/31 04:25:04;;;;;;;44.45;23.23;;;10.40;99.90;;;;;;5013584;28;20048;-49
2021/10/31 04:27:32;;;;;;;38.60;23.55;;;10.40;99.90;;;;;;5012938;28;20060;-52
2021/10/31 04:29:57;;;;;;;42.08;23.08;;;10.40;99.90;;;;;;5142677;22;20005;-52
2021/10/31 04:32:24;;;;;;;36.90;22.70;;;10.40;99.90;;;;;;5004061;28;20417;-52
2021/10/31 04:34:49;;;;;;;43.05;23.80;;;10.40;99.90;;;;;;5011383;28;20092;-50
2021/10/31 04:37:15;;;;;;;44.42;23.10;;;10.40;99.90;;;;;;5010070;28;20038;-50
2021/10/31 04:39:42;;;;;;;43.50;23.77;;;10.40;99.90;;;;;;5010865;28;20462;-49
2021/10/31 04:42:09;;;;;;;42.25;23.83;;;10.50;99.90;;;;;;5011158;28;20038;-52
2021/10/31 04:44:35;;;;;;;47.20;24.30;;;10.50;99.90;;;;;;5010701;28;20042;-49
2021/10/31 04:47:01;;;;;;;57.55;26.25;;;10.50;99.90;;;;;;5005657;28;20046;-51
2021/10/31 04:49:28;;;;;;;49.85;26.10;;;10.50;99.90;;;;;;5010633;28;20496;-49
2021/10/31 04:51:54;;;;;;;44.70;23.70;;;10.50;99.90;;;;;;5001486;28;20192;-52
2021/10/31 04:54:20;;;;;;;44.50;24.80;;;10.50;99.90;;;;;;5007825;28;20538;-49
2021/10/31 04:56:46;;;;;;;47.92;24.98;;;10.50;99.90;;;;;;5010829;28;20033;-56
2021/10/31 04:59:11;;;;;;;41.20;24.83;;;10.60;99.90;;;;;;5011002;28;20117;-50
2021/10/31 05:01:37;;;;;;;41.35;24.20;;;10.60;99.90;;;;;;5010057;28;20191;-51
2021/10/31 05:04:03;;;;;;;41.40;25.13;;;10.60;99.90;;;;;;5011560;28;20139;-50
2021/10/31 05:06:29;;;;;;;47.17;26.08;;;10.60;99.90;;;;;;4993513;28;20046;-52
2021/10/31 05:08:55;;;;;;;40.85;24.90;;;10.60;99.90;;;;;;5007019;28;20473;-49
2021/10/31 05:11:22;;;;;;;46.92;24.50;;;10.60;99.90;;;;;;4978197;28;20474;-50
2021/10/31 05:13:48;;;;;;;46.53;25.83;;;10.60;99.90;;;;;;4996632;28;20049;-51
2021/10/31 05:16:15;;;;;;;45.25;25.25;;;10.60;99.90;;;;;;4993934;28;20045;-49
2021/10/31 05:18:42;;;;;;;49.53;24.90;;;10.60;99.90;;;;;;4997395;28;20034;-53
2021/10/31 05:21:08;;;;;;;46.22;24.60;;;10.70;99.90;;;;;;4996808;28;20125;-49
2021/10/31 05:23:35;;;;;;;49.90;24.95;;;10.70;99.90;;;;;;5014933;28;20115;-52
2021/10/31 05:26:02;;;;;;;42.60;24.33;;;10.70;99.90;;;;;;4997082;28;20068;-52
2021/10/31 05:28:28;;;;;;;47.53;24.08;;;10.60;99.90;;;;;;5011304;28;20049;-53
2021/10/31 05:30:54;;;;;;;47.72;25.13;;;10.70;99.90;;;;;;5010854;28;20402;-51
2021/10/31 05:33:22;;;;;;;44.28;24.83;;;10.70;99.90;;;;;;5011142;28;20038;-50
2021/10/31 05:35:50;;;;;;;42.10;24.60;;;10.70;99.90;;;;;;4996796;28;20029;-52
2021/10/31 05:38:18;;;;;;;35.55;23.52;;;10.70;99.90;;;;;;5011126;28;20065;-50
2021/10/31 05:40:45;;;;;;;44.05;24.33;;;10.70;99.90;;;;;;5012533;28;20142;-51
2021/10/31 05:43:11;;;;;;;37.90;24.15;;;10.80;99.90;;;;;;5009796;28;20038;-54
2021/10/31 05:45:37;;;;;;;41.15;24.70;;;10.70;99.90;;;;;;5012438;28;20045;-51
2021/10/31 05:59:24;;;;;;;39.08;22.77;;;10.70;99.90;;;;;;5584539;22;20440;-51
2021/10/31 06:01:50;;;;;;;34.15;21.92;;;10.70;99.90;;;;;;5030668;28;20038;-55
2021/10/31 06:04:15;;;;;;;37.60;23.55;;;10.80;99.90;;;;;;5032256;28;20037;-52
2021/10/31 06:06:41;;;;;;;38.35;24.25;;;10.80;99.90;;;;;;5032839;28;20038;-54
2021/10/31 06:09:07;;;;;;;36.72;23.52;;;10.70;99.90;;;;;;5029822;28;20064;-54
2021/10/31 06:11:34;;;;;;;33.97;21.90;;;10.70;99.90;;;;;;5044590;22;20129;-50
2021/10/31 06:13:59;;;;;;;37.70;22.50;;;10.70;99.90;;;;;;5027775;28;20044;-48
2021/10/31 06:16:26;;;;;;;39.72;23.80;;;10.70;99.90;;;;;;5032797;28;20112;-48
2021/10/31 06:18:52;;;;;;;40.17;22.92;;;10.70;99.90;;;;;;5030931;28;20040;-48
2021/10/31 06:21:17;;;;;;;32.28;21.38;;;10.70;99.90;;;;;;5029709;28;20030;-48
2021/10/31 06:23:43;;;;;;;34.88;21.02;;;10.70;99.90;;;;;;5031528;28;20419;-48
2021/10/31 06:26:08;;;;;;;31.92;21.67;;;10.70;99.90;;;;;;5026838;28;20041;-49
2021/10/31 06:28:34;;;;;;;32.50;20.52;;;10.70;99.90;;;;;;5032928;28;20068;-48
2021/10/31 06:31:00;;;;;;;34.05;21.20;;;10.70;99.90;;;;;;5027246;28;20045;-54
2021/10/31 06:33:26;;;;;;;38.92;21.60;;;10.70;99.90;;;;;;5032337;28;20068;-53
2021/10/31 06:35:52;;;;;;;34.45;21.80;;;10.70;99.90;;;;;;5032488;28;20469;-53
2021/10/31 06:38:17;;;;;;;37.45;22.17;;;10.70;99.90;;;;;;5032468;28;20026;-52
2021/10/31 06:40:43;;;;;;;30.98;21.15;;;10.70;99.90;;;;;;5027169;28;20132;-53
2021/10/31 06:43:08;;;;;;;36.40;21.17;;;10.70;99.90;;;;;;5011649;28;20539;-52
2021/10/31 06:45:34;;;;;;;36.55;21.70;;;10.60;99.90;;;;;;5013717;28;20037;-55
2021/10/31 06:48:01;;;;;;;35.22;21.27;;;10.60;99.90;;;;;;5031155;28;20035;-52
2021/10/31 06:50:27;;;;;;;32.60;21.60;;;10.60;99.90;;;;;;5023564;28;20071;-53
2021/10/31 06:52:52;;;;;;;32.05;20.15;;;10.60;99.90;;;;;;5027147;28;20485;-53
2021/10/31 06:55:18;;;;;;;36.15;20.73;;;10.60;99.90;;;;;;5032870;28;20030;-53
2021/10/31 06:57:44;;;;;;;37.22;21.92;;;10.70;99.90;;;;;;5032054;28;20064;-52
2021/10/31 07:00:10;;;;;;;32.92;21.55;;;10.60;99.90;;;;;;5031036;28;20048;-53
2021/10/31 07:02:35;;;;;;;34.55;22.20;;;10.60;99.90;;;;;;5012946;28;20033;-53
2021/10/31 07:05:01;;;;;;;33.15;21.83;;;10.60;99.90;;;;;;5029179;28;20033;-53
2021/10/31 07:07:26;;;;;;;36.97;21.27;;;10.60;99.90;;;;;;5032531;28;20037;-51
2021/10/31 07:09:52;;;;;;;35.05;22.45;;;10.60;99.90;;;;;;5030734;28;20043;-54
2021/10/31 07:12:17;;;;;;;36.08;21.52;;;10.60;99.90;;;;;;5031983;28;20112;-54
2021/10/31 07:14:43;;;;;;;39.10;23.15;;;10.60;99.90;;;;;;5032314;28;20409;-55
2021/10/31 07:17:09;;;;;;;33.65;21.65;;;10.70;99.90;;;;;;5030224;28;20503;-54
2021/10/31 07:19:34;;;;;;;33.17;22.38;;;10.70;99.90;;;;;;5032453;28;20517;-53
2021/10/31 07:22:00;;;;;;;37.33;22.02;;;10.70;99.90;;;;;;5030776;28;20043;-52
2021/10/31 07:24:26;;;;;;;33.30;22.27;;;10.70;99.90;;;;;;5028768;28;20033;-53
2021/10/31 07:26:52;;;;;;;33.20;21.70;;;10.70;99.90;;;;;;5020901;28;20090;-53
2021/10/31 07:29:18;;;;;;;34.65;21.08;;;10.60;99.90;;;;;;5021997;28;20038;-54
2021/10/31 07:31:46;;;;;;;36.47;22.42;;;10.70;99.90;;;;;;5029028;28;20030;-53
2021/10/31 07:34:12;;;;;;;35.67;21.05;;;10.70;99.90;;;;;;5020637;28;20044;-54
2021/10/31 07:36:39;;;;;;;36.53;22.52;;;10.70;99.90;;;;;;5023945;28;20033;-54
2021/10/31 07:39:05;;;;;;;33.00;21.42;;;10.70;99.90;;;;;;5025556;28;20036;-54
2021/10/31 07:41:31;;;;;;;36.33;21.02;;;10.70;99.90;;;;;;5031234;28;20042;-55
2021/10/31 07:43:57;;;;;;;34.40;20.90;;;10.70;99.90;;;;;;5029586;28;20083;-53
2021/10/31 07:46:23;;;;;;;33.75;20.63;;;10.70;99.90;;;;;;5031213;28;20425;-55
2021/10/31 07:48:49;;;;;;;27.88;18.80;;;10.70;99.90;;;;;;5029142;28;20033;-53
2021/10/31 07:51:15;;;;;;;28.17;18.85;;;10.80;99.90;;;;;;5027692;28;20033;-51
2021/10/31 07:53:42;;;;;;;31.67;19.05;;;10.80;99.90;;;;;;5031378;28;20116;-55
2021/10/31 07:56:10;;;;;;;33.50;19.52;;;10.80;99.90;;;;;;5030578;28;20489;-55
2021/10/31 07:58:36;;;;;;;27.48;18.42;;;10.80;99.90;;;;;;5025108;28;20041;-55
2021/10/31 08:01:03;;;;;;;31.00;18.30;;;10.80;99.90;;;;;;5030213;28;20409;-55
2021/10/31 08:03:28;;;;;;;28.55;19.15;;;10.80;99.90;;;;;;5022893;28;20045;-54
2021/10/31 08:05:54;;;;;;;34.75;20.20;;;10.80;99.90;;;;;;5030944;28;20044;-54
2021/10/31 08:08:22;;;;;;;32.08;18.70;;;10.80;99.90;;;;;;5025092;28;20041;-55
2021/10/31 08:10:48;;;;;;;27.30;17.85;;;10.80;99.90;;;;;;5030926;28;20045;-55
2021/10/31 08:13:27;;;;;;;23.58;16.27;;;10.90;99.90;;;;;;5027522;28;20033;-55
2021/10/31 08:15:54;;;;;;;29.02;17.50;;;10.90;99.90;;;;;;5025765;28;20112;-54
2021/10/31 08:18:20;;;;;;;26.23;16.45;;;11.00;99.90;;;;;;5029063;28;20033;-55
2021/10/31 08:20:46;;;;;;;24.60;16.60;;;10.90;99.90;;;;;;5031383;28;20393;-55
2021/10/31 08:23:14;;;;;;;25.63;16.10;;;11.00;99.90;;;;;;5027750;28;20041;-54
2021/10/31 08:25:41;;;;;;;23.30;15.65;;;11.00;99.90;;;;;;5030330;28;20120;-54
2021/10/31 08:28:09;;;;;;;25.27;15.68;;;11.00;99.90;;;;;;5027411;28;20041;-54
2021/10/31 08:30:35;;;;;;;20.42;14.82;;;11.00;99.90;;;;;;5024162;28;20063;-55
2021/10/31 08:33:17;;;;;;;24.52;16.17;;;11.10;99.90;;;;;;5027666;28;20116;-55
2021/10/31 08:35:42;;;;;;;23.55;16.27;;;11.00;99.90;;;;;;5028340;28;20076;-55
2021/10/31 08:38:10;;;;;;;23.38;14.52;;;11.00;99.90;;;;;;5030583;28;20037;-55
2021/10/31 08:40:36;;;;;;;22.83;15.13;;;11.00;99.90;;;;;;5030330;28;20041;-56
2021/10/31 08:43:01;;;;;;;22.67;14.52;;;11.20;99.90;;;;;;5031143;28;20033;-56
2021/10/31 08:45:27;;;;;;;22.25;14.75;;;11.20;99.90;;;;;;5031360;28;20041;-54
2021/10/31 08:47:52;;;;;;;28.05;15.25;;;11.20;99.90;;;;;;5034441;28;20044;-55
2021/10/31 08:50:18;;;;;;;19.70;13.93;;;11.20;99.90;;;;;;5027416;28;20522;-55
2021/10/31 08:52:44;;;;;;;21.20;14.65;;;11.30;99.90;;;;;;5025068;28;20030;-56
2021/10/31 08:55:09;;;;;;;20.73;13.73;;;11.40;99.90;;;;;;5022621;28;20084;-55
2021/10/31 08:57:35;;;;;;;24.20;15.32;;;11.40;99.90;;;;;;5021248;28;20079;-55
2021/10/31 09:00:01;;;;;;;27.05;16.60;;;11.40;99.90;;;;;;5019577;28;20042;-55
2021/10/31 09:02:27;;;;;;;23.30;14.50;;;11.40;99.90;;;;;;5021183;28;20050;-55
2021/10/31 09:04:53;;;;;;;20.15;13.88;;;11.50;99.90;;;;;;5018612;28;20116;-56
2021/10/31 09:07:18;;;;;;;20.55;14.43;;;11.50;99.90;;;;;;5019529;28;21333;-56
2021/10/31 09:09:44;;;;;;;19.88;14.05;;;11.60;99.90;;;;;;5021937;28;20152;-55
2021/10/31 09:12:11;;;;;;;21.70;14.30;;;11.60;99.90;;;;;;5019735;28;20065;-56
2021/10/31 09:14:37;;;;;;;21.10;13.55;;;11.70;99.90;;;;;;5023046;28;20163;-56
2021/10/31 09:17:03;;;;;;;17.02;12.88;;;11.70;99.90;;;;;;5023658;28;20029;-56
2021/10/31 09:19:28;;;;;;;19.25;12.88;;;11.80;99.90;;;;;;5023500;28;20060;-56
2021/10/31 09:21:54;;;;;;;16.17;12.45;;;11.80;99.90;;;;;;5029671;28;20041;-55
2021/10/31 09:24:20;;;;;;;21.02;12.93;;;11.80;99.90;;;;;;5031833;28;20127;-55
2021/10/31 09:26:46;;;;;;;18.77;11.90;;;11.80;99.90;;;;;;5008824;28;20096;-56
2021/10/31 09:29:12;;;;;;;20.83;13.57;;;11.90;99.90;;;;;;5032120;28;20073;-53
2021/10/31 09:31:38;;;;;;;18.30;13.45;;;11.90;99.90;;;;;;5024606;28;20108;-56
2021/10/31 09:34:04;;;;;;;19.88;12.40;;;11.90;99.90;;;;;;5023407;28;20120;-56
2021/10/31 09:36:34;;;;;;;20.05;13.20;;;11.90;99.90;;;;;;5021050;28;20037;-55
2021/10/31 09:39:02;;;;;;;18.25;12.43;;;11.90;99.90;;;;;;5029852;28;20049;-55
2021/10/31 09:41:30;;;;;;;20.98;11.77;;;12.00;99.90;;;;;;5022322;28;20066;-56
2021/10/31 09:44:05;;;;;;;15.55;11.63;;;12.10;99.90;;;;;;5030765;28;20091;-56
2021/10/31 09:46:30;;;;;;;19.48;11.95;;;12.20;99.90;;;;;;5024487;28;20115;-56
2021/10/31 09:48:58;;;;;;;16.48;11.18;;;12.30;99.90;;;;;;5024145;28;20033;-54
2021/10/31 09:51:24;;;;;;;15.10;9.10;;;12.30;99.90;;;;;;5010559;28;20500;-56
2021/10/31 09:53:49;;;;;;;16.42;11.18;;;12.40;99.90;;;;;;5032615;28;20084;-56
2021/10/31 09:56:16;;;;;;;17.67;11.48;;;12.40;99.90;;;;;;5026197;28;20056;-56
2021/10/31 09:58:43;;;;;;;16.13;10.73;;;12.40;99.90;;;;;;5027039;28;20079;-56
2021/10/31 10:01:38;;;;;;;18.55;11.50;;;12.50;99.90;;;;;;5008197;28;20436;-56
2021/10/31 10:04:07;;;;;;;17.38;10.82;;;12.50;99.90;;;;;;5024249;28;20460;-55
2021/10/31 10:06:33;;;;;;;15.45;10.68;;;12.60;99.90;;;;;;5004160;28;20045;-54
2021/10/31 10:09:10;;;;;;;15.73;11.45;;;12.60;99.90;;;;;;5029705;28;20039;-56
2021/10/31 10:11:41;;;;;;;18.00;12.52;;;12.60;99.90;;;;;;5029618;28;20037;-53
2021/10/31 10:14:11;;;;;;;16.48;10.60;;;12.60;99.90;;;;;;5031307;28;20422;-55
2021/10/31 10:16:37;;;;;;;15.07;10.30;;;12.70;99.90;;;;;;5030856;28;20037;-56
2021/10/31 10:19:28;;;;;;;17.60;10.77;;;12.70;99.90;;;;;;5029217;28;20043;-53
2021/10/31 10:21:54;;;;;;;17.05;11.20;;;12.80;99.90;;;;;;5022972;28;20536;-53
2021/10/31 10:24:22;;;;;;;15.13;10.18;;;12.80;99.90;;;;;;5032084;28;20091;-55
2021/10/31 10:26:49;;;;;;;16.05;10.43;;;12.80;99.90;;;;;;5030161;28;20501;-54
2021/10/31 10:29:24;;;;;;;19.13;10.35;;;12.90;99.90;;;;;;5032492;28;20081;-54
2021/10/31 10:31:54;;;;;;;14.77;9.68;;;12.90;99.90;;;;;;5031320;28;20401;-56
2021/10/31 10:34:51;;;;;;;17.90;10.88;;;12.90;99.90;;;;;;5031507;28;20405;-55
2021/10/31 10:37:22;;;;;;;18.23;10.95;;;13.00;99.90;;;;;;5027794;28;20256;-52
2021/10/31 10:39:59;;;;;;;17.02;10.40;;;13.00;99.90;;;;;;5033130;28;20041;-55
2021/10/31 10:42:30;;;;;;;15.80;10.65;;;13.00;99.90;;;;;;5032070;28;20515;-54
2021/10/31 10:45:02;;;;;;;15.15;11.48;;;13.10;99.90;;;;;;5032957;28;20041;-55
2021/10/31 10:47:28;;;;;;;17.02;10.35;;;13.10;99.90;;;;;;5032118;28;20501;-56
2021/10/31 10:49:55;;;;;;;16.45;9.93;;;13.20;99.90;;;;;;5028658;28;20045;-56
2021/10/31 10:52:41;;;;;;;17.90;9.75;;;13.30;99.90;;;;;;5030969;28;20080;-56
2021/10/31 10:55:21;;;;;;;17.50;9.30;;;13.30;99.90;;;;;;5026885;28;20081;-56
2021/10/31 10:57:53;;;;;;;15.70;9.30;;;13.40;99.90;;;;;;5031662;28;20065;-56
2021/10/31 11:00:22;;;;;;;;;;;13.50;99.90;;;;;;5033277;28;20038;-56
2021/10/31 11:03:08;;;;;;;11.85;8.73;;;13.50;99.90;;;;;;5032245;28;19927;-56
2021/10/31 11:05:41;;;;;;;10.98;7.35;;;13.50;99.90;;;;;;5028608;28;20036;-56
2021/10/31 11:08:15;;;;;;;14.52;7.97;;;13.60;99.90;;;;;;5026042;28;20033;-56
2021/10/31 11:10:46;;;;;;;13.05;8.02;;;13.60;99.90;;;;;;5031489;28;20124;-56
2021/10/31 11:13:11;;;;;;;13.93;7.75;;;13.70;99.90;;;;;;5032007;28;20034;-56
2021/10/31 11:15:37;;;;;;;10.00;6.07;;;13.80;99.90;;;;;;5032658;28;20044;-56
2021/10/31 11:18:07;;;;;;;10.95;7.45;;;13.80;99.90;;;;;;5030452;28;20516;-56
2021/10/31 11:20:36;;;;;;;13.43;6.90;;;13.80;99.90;;;;;;5031776;28;20086;-56
2021/10/31 11:23:05;;;;;;;10.65;6.65;;;13.90;99.90;;;;;;5031465;28;20037;-56
2021/10/31 11:25:33;;;;;;;10.38;6.57;;;14.00;99.90;;;;;;5031397;28;20065;-56
2021/10/31 11:28:00;;;;;;;10.68;6.40;;;14.00;99.90;;;;;;5031136;28;20767;-56
2021/10/31 11:30:28;;;;;;;10.60;6.10;;;14.00;99.90;;;;;;5031783;28;20425;-56
2021/10/31 11:32:55;;;;;;;10.60;6.55;;;14.10;99.50;;;;;;5031734;28;20116;-57
2021/10/31 11:35:22;;;;;;;9.60;6.80;;;14.10;99.80;;;;;;5031781;28;20100;-54
2021/10/31 11:38:16;;;;;;;9.40;6.60;;;14.10;99.70;;;;;;5031545;28;20160;-55
2021/10/31 11:41:02;;;;;;;8.63;5.95;;;14.10;99.90;;;;;;5029983;28;20083;-55
2021/10/31 11:43:30;;;;;;;10.30;6.55;;;14.10;99.60;;;;;;5013819;28;20132;-54
2021/10/31 11:45:57;;;;;;;9.70;6.30;;;14.10;99.50;;;;;;5028163;28;20037;-54
2021/10/31 11:48:31;;;;;;;14.02;6.38;;;14.00;99.50;;;;;;5031085;28;20048;-54
2021/10/31 11:50:59;;;;;;;9.80;6.38;;;14.10;99.90;;;;;;5031362;28;20113;-53
2021/10/31 11:53:27;;;;;;;8.13;5.70;;;14.00;99.90;;;;;;5031802;28;20041;-55
2021/10/31 11:55:54;;;;;;;7.57;5.40;;;14.00;99.80;;;;;;5026121;28;20037;-56
2021/10/31 11:58:22;;;;;;;11.10;6.50;;;14.00;99.60;;;;;;5031151;28;20091;-53
2021/10/31 12:00:56;;;;;;;9.73;5.93;;;14.10;99.30;;;;;;5023904;28;20048;-53
2021/10/31 12:03:33;;;;;;;13.50;5.50;;;14.00;99.20;;;;;;5026050;28;20057;-53
2021/10/31 12:06:25;;;;;;;8.77;5.72;;;14.10;98.70;;;;;;5016357;28;20077;-53
2021/10/31 12:09:02;;;;;;;10.03;6.03;;;14.10;98.90;;;;;;5025522;28;20045;-53
2021/10/31 12:11:31;;;;;;;8.60;5.22;;;14.00;99.20;;;;;;5072069;22;20368;-54
2021/10/31 12:14:01;;;;;;;11.32;4.65;;;14.00;99.30;;;;;;5024829;28;20046;-51
2021/10/31 12:16:29;;;;;;;6.75;4.35;;;14.10;97.70;;;;;;5011083;28;20117;-53
2021/10/31 12:19:10;;;;;;;7.55;4.88;;;14.10;97.80;;;;;;5030457;28;20095;-52
2021/10/31 12:21:39;;;;;;;9.30;5.32;;;14.10;98.30;;;;;;5024558;28;20060;-55
2021/10/31 12:24:11;;;;;;;19.20;10.05;;;14.10;98.20;;;;;;5010788;28;20045;-54
2021/10/31 12:26:37;;;;;;;11.68;5.47;;;14.10;98.60;;;;;;5027161;28;20061;-54
2021/10/31 12:29:11;;;;;;;9.25;4.78;;;14.00;98.10;;;;;;5023019;28;20513;-55
2021/10/31 12:31:50;;;;;;;8.15;5.03;;;14.00;98.40;;;;;;5026773;28;20041;-55
2021/10/31 12:34:20;;;;;;;7.40;4.57;;;14.00;98.20;;;;;;5011104;28;20115;-55
2021/10/31 12:36:49;;;;;;;8.18;4.75;;;14.00;98.60;;;;;;5028147;28;20048;-55
2021/10/31 12:39:24;;;;;;;9.07;5.03;;;13.90;98.60;;;;;;5030457;28;20456;-55
2021/10/31 12:42:12;;;;;;;9.35;4.75;;;14.00;98.60;;;;;;4996031;28;20033;-55
2021/10/31 12:44:51;;;;;;;8.77;5.80;;;13.90;98.90;;;;;;4993583;28;20120;-55
2021/10/31 12:47:23;;;;;;;7.05;4.20;;;13.90;98.90;;;;;;5007308;28;20042;-55
2021/10/31 12:49:52;;;;;;;7.15;3.90;;;13.90;99.00;;;;;;5010766;28;20029;-54
2021/10/31 12:52:27;;;;;;;5.93;3.47;;;13.90;98.90;;;;;;5030496;28;20091;-55